createdAt,value
2019-03-25T00:01:37.101Z,5.28
2019-03-25T00:02:37.093Z,5.33
2019-03-25T00:03:37.495Z,5.38
2019-03-25T00:04:37.078Z,5.39
2019-03-25T00:05:37.074Z,5.35
2019-03-25T00:06:37.065Z,5.38
2019-03-25T00:07:37.057Z,5.38
2019-03-25T00:09:37.047Z,5.43
2019-03-25T00:11:37.034Z,5.50
2019-03-25T00:12:37.019Z,5.46
2019-03-25T00:13:37.019Z,5.41
2019-03-25T00:14:37.005Z,5.29
2019-03-25T00:15:37.006Z,5.44
2019-03-25T00:16:36.989Z,5.43
2019-03-25T00:17:37.188Z,5.39
2019-03-25T00:18:36.977Z,5.36
2019-03-25T00:20:37.170Z,5.29
2019-03-25T00:21:37.160Z,5.23
2019-03-25T00:22:36.948Z,5.20
2019-03-25T00:23:37.139Z,5.20
2019-03-25T00:24:39.262Z,5.12
2019-03-25T00:25:36.924Z,5.18
2019-03-25T00:27:36.907Z,5.17
2019-03-25T00:28:36.905Z,5.15
2019-03-25T00:29:36.899Z,5.14
2019-03-25T00:30:36.890Z,5.15
2019-03-25T00:31:37.085Z,5.11
2019-03-25T00:32:37.074Z,5.18
2019-03-25T00:33:36.867Z,5.15
2019-03-25T00:34:36.857Z,5.26
2019-03-25T00:35:36.854Z,5.21
2019-03-25T00:36:36.847Z,5.18
2019-03-25T00:37:36.835Z,5.21
2019-03-25T00:38:36.827Z,5.15
2019-03-25T00:39:36.821Z,5.23
2019-03-25T00:40:36.818Z,5.20
2019-03-25T00:43:36.790Z,5.33
2019-03-25T00:44:36.783Z,5.35
2019-03-25T00:45:36.776Z,5.35
2019-03-25T00:46:36.773Z,5.43
2019-03-25T00:47:36.758Z,5.47
2019-03-25T00:48:36.747Z,5.51
2019-03-25T00:49:36.945Z,5.54
2019-03-25T00:50:36.732Z,5.50
2019-03-25T00:51:36.731Z,5.50
2019-03-25T00:53:36.718Z,5.54
2019-03-25T00:55:36.696Z,5.56
2019-03-25T00:57:36.684Z,5.51
2019-03-25T00:58:36.882Z,5.57
2019-03-25T01:00:36.859Z,5.62
2019-03-25T01:01:36.656Z,5.59
2019-03-25T01:02:36.648Z,5.57
2019-03-25T01:03:36.635Z,5.54
2019-03-25T01:04:36.627Z,5.61
2019-03-25T01:05:36.825Z,5.66
2019-03-25T01:06:36.822Z,5.59
2019-03-25T01:07:36.612Z,5.69
2019-03-25T01:09:36.591Z,5.65
2019-03-25T01:10:36.582Z,5.62
2019-03-25T01:12:36.567Z,5.72
2019-03-25T01:14:36.754Z,5.73
2019-03-25T01:15:36.544Z,5.73
2019-03-25T01:16:36.536Z,5.69
2019-03-25T01:17:36.538Z,5.69
2019-03-25T01:18:36.528Z,5.73
2019-03-25T01:19:36.521Z,5.73
2019-03-25T01:20:36.508Z,5.89
2019-03-25T01:21:36.505Z,5.79
2019-03-25T01:22:36.903Z,5.79
2019-03-25T01:23:36.489Z,5.80
2019-03-25T01:24:37.694Z,5.87
2019-03-25T01:25:36.470Z,5.86
2019-03-25T01:26:36.465Z,5.91
2019-03-25T01:27:36.466Z,5.94
2019-03-25T01:29:36.438Z,5.91
2019-03-25T01:33:36.408Z,5.93
2019-03-25T01:36:36.389Z,5.98
2019-03-25T01:38:36.371Z,5.98
2019-03-25T01:39:36.372Z,5.98
2019-03-25T01:40:36.368Z,5.98
2019-03-25T01:44:36.330Z,6.04
2019-03-25T01:45:36.521Z,6.04
2019-03-25T01:46:36.320Z,6.09
2019-03-25T01:47:36.305Z,6.04
2019-03-25T01:48:36.304Z,5.98
2019-03-25T01:49:36.299Z,5.91
2019-03-25T01:50:36.291Z,6.07
2019-03-25T01:51:36.683Z,6.05
2019-03-25T01:52:36.479Z,5.94
2019-03-25T01:53:36.262Z,5.98
2019-03-25T01:54:36.254Z,6.08
2019-03-25T01:55:36.247Z,6.12
2019-03-25T01:58:37.439Z,6.08
2019-03-25T02:00:36.216Z,6.09
2019-03-25T02:01:36.203Z,6.09
2019-03-25T02:02:36.196Z,6.07
2019-03-25T02:05:36.176Z,6.14
2019-03-25T02:07:36.159Z,6.07
2019-03-25T02:08:36.156Z,6.08
2019-03-25T02:11:36.342Z,6.14
2019-03-25T02:13:36.117Z,6.01
2019-03-25T02:15:36.108Z,6.07
2019-03-25T02:16:36.093Z,6.05
2019-03-25T02:18:36.077Z,6.12
2019-03-25T02:19:36.072Z,6.16
2019-03-25T02:20:36.266Z,6.14
2019-03-25T02:21:36.265Z,6.17
2019-03-25T02:22:36.118Z,6.17
2019-03-25T02:24:36.247Z,6.19
2019-03-25T02:26:36.223Z,6.09
2019-03-25T02:27:36.220Z,6.14
2019-03-25T02:28:36.006Z,6.17
2019-03-25T02:30:36.005Z,6.16
2019-03-25T02:31:35.984Z,6.20
2019-03-25T02:32:35.979Z,6.19
2019-03-25T02:34:35.970Z,6.19
2019-03-25T02:36:36.149Z,6.30
2019-03-25T02:37:35.943Z,6.33
2019-03-25T02:38:35.930Z,6.35
2019-03-25T02:39:35.936Z,6.30
2019-03-25T02:40:35.928Z,6.36
2019-03-25T02:41:35.918Z,6.31
2019-03-25T02:42:35.912Z,6.31
2019-03-25T02:43:36.097Z,6.35
2019-03-25T02:44:35.892Z,6.31
2019-03-25T02:45:36.019Z,6.35
2019-03-25T02:46:35.872Z,6.39
2019-03-25T02:47:36.073Z,6.38
2019-03-25T02:48:37.086Z,6.36
2019-03-25T02:49:36.057Z,6.48
2019-03-25T02:50:35.847Z,6.45
2019-03-25T02:52:09.253Z,6.52
2019-03-25T02:52:35.831Z,6.39
2019-03-25T02:53:35.820Z,6.46
2019-03-25T02:55:41.747Z,6.41
2019-03-25T02:57:35.795Z,6.36
2019-03-25T02:58:35.787Z,6.41
2019-03-25T02:59:37.197Z,6.30
2019-03-25T03:00:35.773Z,6.35
2019-03-25T03:01:35.967Z,6.17
2019-03-25T03:02:36.161Z,6.22
2019-03-25T03:03:35.743Z,6.24
2019-03-25T03:04:35.741Z,6.01
2019-03-25T03:05:35.938Z,6.11
2019-03-25T03:06:35.722Z,6.08
2019-03-25T03:07:35.716Z,6.01
2019-03-25T03:08:35.708Z,5.94
2019-03-25T03:09:35.701Z,5.91
2019-03-25T03:12:35.683Z,5.84
2019-03-25T03:13:35.673Z,5.79
2019-03-25T03:14:35.660Z,5.75
2019-03-25T03:16:35.656Z,5.56
2019-03-25T03:17:35.639Z,5.53
2019-03-25T03:18:35.636Z,5.59
2019-03-25T03:19:35.628Z,5.61
2019-03-25T03:22:35.609Z,5.43
2019-03-25T03:24:35.586Z,5.44
2019-03-25T03:25:35.781Z,5.35
2019-03-25T03:26:35.580Z,5.33
2019-03-25T03:27:35.564Z,5.28
2019-03-25T03:28:35.554Z,5.33
2019-03-25T03:29:35.551Z,5.26
2019-03-25T03:32:35.526Z,5.20
2019-03-25T03:33:35.519Z,5.12
2019-03-25T03:34:35.508Z,5.10
2019-03-25T03:35:35.515Z,5.15
2019-03-25T03:37:35.508Z,5.05
2019-03-25T03:38:35.482Z,5.15
2019-03-25T03:39:35.475Z,5.14
2019-03-25T03:41:35.654Z,4.97
2019-03-25T03:42:35.453Z,5.10
2019-03-25T03:43:35.445Z,4.97
2019-03-25T03:44:35.435Z,4.97
2019-03-25T03:45:35.627Z,5.05
2019-03-25T03:46:35.418Z,4.97
2019-03-25T03:47:35.421Z,5.04
2019-03-25T03:48:35.399Z,5.02
2019-03-25T03:49:35.391Z,5.00
2019-03-25T03:50:35.394Z,4.93
2019-03-25T03:51:35.381Z,4.94
2019-03-25T03:52:35.366Z,4.90
2019-03-25T03:54:35.354Z,4.96
2019-03-25T03:55:35.343Z,4.84
2019-03-25T03:57:35.329Z,4.74
2019-03-25T03:58:35.316Z,4.71
2019-03-25T03:59:35.322Z,4.67
2019-03-25T04:00:35.311Z,4.58
2019-03-25T04:01:35.501Z,4.66
2019-03-25T04:04:35.474Z,4.52
2019-03-25T04:05:35.466Z,4.52
2019-03-25T04:06:35.251Z,4.50
2019-03-25T04:07:35.477Z,4.55
2019-03-25T04:08:35.449Z,4.48
2019-03-25T04:09:35.232Z,4.41
2019-03-25T04:10:35.238Z,4.30
2019-03-25T04:11:35.211Z,4.26
2019-03-25T04:14:35.191Z,4.31
2019-03-25T04:15:35.385Z,4.22
2019-03-25T04:16:35.174Z,4.13
2019-03-25T04:17:35.169Z,4.13
2019-03-25T04:18:35.157Z,4.12
2019-03-25T04:20:35.147Z,4.08
2019-03-25T04:21:35.141Z,4.13
2019-03-25T04:22:35.331Z,4.06
2019-03-25T04:23:35.115Z,4.04
2019-03-25T04:24:35.325Z,4.01
2019-03-25T04:25:35.098Z,3.98
2019-03-25T04:26:35.095Z,3.92
2019-03-25T04:27:35.082Z,3.87
2019-03-25T04:28:35.073Z,3.95
2019-03-25T04:29:35.068Z,3.95
2019-03-25T04:30:35.268Z,3.91
2019-03-25T04:31:35.251Z,3.87
2019-03-25T04:32:35.046Z,3.88
2019-03-25T04:33:35.037Z,3.95
2019-03-25T04:34:35.233Z,3.87
2019-03-25T04:36:35.020Z,3.86
2019-03-25T04:37:35.005Z,3.86
2019-03-25T04:38:34.994Z,3.74
2019-03-25T04:39:35.189Z,3.80
2019-03-25T04:40:34.977Z,3.81
2019-03-25T04:42:34.968Z,3.83
2019-03-25T04:43:34.953Z,3.86
2019-03-25T04:44:34.944Z,3.84
2019-03-25T04:45:34.942Z,3.80
2019-03-25T04:47:34.923Z,3.74
2019-03-25T04:48:34.910Z,3.80
2019-03-25T04:49:34.909Z,3.84
2019-03-25T04:51:34.893Z,3.73
2019-03-25T04:52:35.087Z,3.70
2019-03-25T04:53:34.872Z,3.73
2019-03-25T04:54:34.866Z,3.73
2019-03-25T04:55:34.855Z,3.68
2019-03-25T04:57:34.843Z,3.73
2019-03-25T04:58:34.829Z,3.68
2019-03-25T05:00:34.817Z,3.69
2019-03-25T05:01:34.810Z,3.68
2019-03-25T05:02:34.794Z,3.74
2019-03-25T05:03:34.787Z,3.66
2019-03-25T05:04:34.788Z,3.66
2019-03-25T05:05:36.316Z,3.69
2019-03-25T05:06:34.763Z,3.66
2019-03-25T05:07:34.761Z,3.66
2019-03-25T05:08:34.750Z,3.59
2019-03-25T05:09:34.740Z,3.65
2019-03-25T05:10:34.727Z,3.63
2019-03-25T05:11:34.929Z,3.58
2019-03-25T05:12:34.714Z,3.63
2019-03-25T05:13:36.124Z,3.60
2019-03-25T05:14:34.694Z,3.62
2019-03-25T05:15:34.705Z,3.58
2019-03-25T05:16:34.681Z,3.60
2019-03-25T05:21:35.042Z,3.63
2019-03-25T05:22:34.832Z,3.59
2019-03-25T05:23:34.629Z,3.69
2019-03-25T05:24:34.617Z,3.73
2019-03-25T05:25:34.806Z,3.66
2019-03-25T05:26:34.595Z,3.69
2019-03-25T05:27:34.589Z,3.73
2019-03-25T05:28:34.586Z,3.77
2019-03-25T05:29:34.577Z,3.69
2019-03-25T05:31:34.555Z,3.76
2019-03-25T05:32:34.549Z,3.80
2019-03-25T05:33:34.536Z,3.80
2019-03-25T05:34:34.531Z,3.84
2019-03-25T05:38:34.504Z,3.94
2019-03-25T05:39:34.488Z,4.05
2019-03-25T05:40:34.684Z,4.01
2019-03-25T05:41:34.471Z,4.06
2019-03-25T05:43:34.666Z,4.13
2019-03-25T05:45:34.447Z,4.12
2019-03-25T05:46:34.432Z,4.08
2019-03-25T05:47:34.427Z,4.19
2019-03-25T05:50:34.811Z,4.13
2019-03-25T05:51:34.393Z,4.12
2019-03-25T05:52:34.390Z,4.08
2019-03-25T05:53:34.582Z,4.12
2019-03-25T05:54:34.375Z,4.04
2019-03-25T05:55:34.358Z,4.05
2019-03-25T05:56:34.355Z,4.10
2019-03-25T05:57:34.342Z,4.04
2019-03-25T05:58:34.341Z,4.08
2019-03-25T05:59:34.325Z,4.02
2019-03-25T06:00:34.321Z,4.02
2019-03-25T06:02:34.307Z,3.95
2019-03-25T06:04:34.490Z,3.86
2019-03-25T06:08:35.508Z,4.02
2019-03-25T06:10:34.245Z,4.04
2019-03-25T06:11:34.435Z,4.05
2019-03-25T06:12:34.222Z,4.13
2019-03-25T06:13:34.411Z,4.08
2019-03-25T06:14:34.208Z,4.06
2019-03-25T06:15:35.424Z,4.26
2019-03-25T06:16:34.196Z,4.22
2019-03-25T06:18:34.380Z,4.32
2019-03-25T06:19:34.374Z,4.42
2019-03-25T06:20:34.157Z,4.48
2019-03-25T06:21:34.152Z,4.55
2019-03-25T06:22:34.139Z,4.53
2019-03-25T06:23:34.137Z,4.52
2019-03-25T06:24:34.328Z,4.48
2019-03-25T06:26:34.306Z,4.59
2019-03-25T06:27:34.097Z,4.58
2019-03-25T06:28:34.092Z,4.60
2019-03-25T06:29:34.088Z,4.63
2019-03-25T06:30:34.076Z,4.70
2019-03-25T06:31:34.067Z,4.75
2019-03-25T06:32:34.060Z,4.71
2019-03-25T06:33:34.056Z,4.82
2019-03-25T06:34:34.248Z,4.80
2019-03-25T06:35:34.037Z,4.86
2019-03-25T06:36:34.027Z,4.89
2019-03-25T06:39:34.009Z,4.89
2019-03-25T06:40:34.205Z,4.97
2019-03-25T06:41:33.993Z,4.96
2019-03-25T06:42:34.184Z,5.04
2019-03-25T06:43:33.971Z,5.08
2019-03-25T06:44:33.970Z,5.10
2019-03-25T06:45:33.965Z,5.05
2019-03-25T06:46:34.155Z,5.14
2019-03-25T06:47:34.145Z,5.11
2019-03-25T06:48:33.933Z,5.17
2019-03-25T06:49:33.932Z,5.26
2019-03-25T06:50:33.922Z,5.26
2019-03-25T06:51:33.922Z,5.35
2019-03-25T06:54:33.897Z,5.29
2019-03-25T06:55:33.882Z,5.18
2019-03-25T06:56:33.874Z,5.26
2019-03-25T06:57:33.870Z,5.11
2019-03-25T06:58:33.862Z,5.17
2019-03-25T06:59:33.857Z,5.17
2019-03-25T07:01:34.049Z,5.17
2019-03-25T07:02:33.834Z,4.97
2019-03-25T07:03:33.825Z,5.05
2019-03-25T07:04:34.220Z,5.12
2019-03-25T07:05:33.808Z,5.08
2019-03-25T07:07:33.788Z,5.14
2019-03-25T07:08:33.787Z,4.96
2019-03-25T07:12:33.759Z,5.05
2019-03-25T07:14:33.935Z,5.11
2019-03-25T07:15:33.932Z,5.17
2019-03-25T07:16:33.725Z,5.21
2019-03-25T07:18:34.109Z,5.21
2019-03-25T07:19:33.703Z,5.21
2019-03-25T07:20:33.894Z,5.32
2019-03-25T07:22:33.883Z,5.39
2019-03-25T07:24:33.861Z,5.65
2019-03-25T07:25:35.066Z,5.73
2019-03-25T07:26:33.855Z,5.79
2019-03-25T07:27:36.937Z,5.76
2019-03-25T07:28:33.637Z,5.76
2019-03-25T07:29:33.826Z,5.82
2019-03-25T07:30:33.619Z,5.82
2019-03-25T07:32:33.611Z,5.76
2019-03-25T07:33:33.595Z,5.76
2019-03-25T07:35:33.585Z,5.80
2019-03-25T07:36:33.986Z,5.82
2019-03-25T07:37:33.775Z,5.76
2019-03-25T07:38:33.560Z,5.75
2019-03-25T07:39:33.553Z,5.68
2019-03-25T07:41:33.538Z,5.54
2019-03-25T07:42:33.534Z,5.48
2019-03-25T07:43:33.933Z,5.48
2019-03-25T07:44:33.524Z,5.43
2019-03-25T07:47:33.702Z,5.35
2019-03-25T07:50:33.474Z,5.14
2019-03-25T07:51:34.684Z,5.17
2019-03-25T07:53:33.448Z,5.00
2019-03-25T07:54:33.441Z,5.04
2019-03-25T07:55:33.441Z,5.02
2019-03-25T07:56:33.431Z,5.02
2019-03-25T07:57:33.420Z,4.94
2019-03-25T07:58:33.431Z,5.00
2019-03-25T08:01:33.397Z,4.90
2019-03-25T08:03:33.378Z,4.93
2019-03-25T08:06:33.354Z,4.92
2019-03-25T08:07:33.360Z,4.74
2019-03-25T08:08:33.334Z,4.71
2019-03-25T08:09:33.336Z,4.63
2019-03-25T08:10:33.749Z,4.58
2019-03-25T08:11:33.306Z,4.60
2019-03-25T08:12:33.511Z,4.56
2019-03-25T08:13:33.293Z,4.48
2019-03-25T08:15:06.495Z,4.45
2019-03-25T08:15:33.276Z,4.42
2019-03-25T08:16:33.271Z,4.52
2019-03-25T08:18:33.251Z,4.53
2019-03-25T08:19:33.250Z,4.58
2019-03-25T08:22:06.643Z,4.80
2019-03-25T08:29:33.173Z,5.51
2019-03-25T08:30:33.174Z,5.66
2019-03-25T08:31:33.156Z,5.73
2019-03-25T08:33:33.342Z,5.97
2019-03-25T08:34:34.560Z,6.20
2019-03-25T08:36:33.329Z,6.39
2019-03-25T08:38:33.114Z,6.62
2019-03-25T08:39:33.106Z,6.52
2019-03-25T08:40:33.102Z,6.46
2019-03-25T08:41:33.089Z,6.52
2019-03-25T08:42:33.288Z,6.74
2019-03-25T08:43:33.286Z,6.70
2019-03-25T08:44:33.077Z,6.77
2019-03-25T08:45:33.273Z,6.87
2019-03-25T08:46:33.062Z,6.87
2019-03-25T08:47:33.054Z,6.88
2019-03-25T08:48:33.047Z,6.87
2019-03-25T08:50:33.042Z,7.05
2019-03-25T08:51:33.035Z,7.17
2019-03-25T08:52:33.025Z,7.17
2019-03-25T08:53:34.432Z,7.20
2019-03-25T08:54:33.009Z,7.18
2019-03-25T08:55:33.005Z,7.36
2019-03-25T08:56:34.237Z,7.51
2019-03-25T08:57:33.000Z,7.53
2019-03-25T08:58:33.203Z,7.45
2019-03-25T08:59:32.986Z,7.53
2019-03-25T09:00:32.977Z,7.66
2019-03-25T09:01:32.978Z,7.54
2019-03-25T09:02:32.966Z,7.54
2019-03-25T09:03:32.968Z,7.77
2019-03-25T09:04:32.960Z,7.93
2019-03-25T09:06:32.952Z,8.08
2019-03-25T09:07:33.145Z,8.13
2019-03-25T09:09:32.935Z,8.12
2019-03-25T09:10:32.928Z,8.10
2019-03-25T09:11:33.127Z,8.24
2019-03-25T09:12:32.925Z,8.33
2019-03-25T09:13:32.911Z,8.37
2019-03-25T09:14:32.915Z,8.26
2019-03-25T09:15:32.907Z,8.19
2019-03-25T09:16:32.906Z,8.26
2019-03-25T09:17:32.895Z,8.51
2019-03-25T09:18:34.108Z,8.51
2019-03-25T09:19:32.885Z,8.73
2019-03-25T09:20:34.112Z,8.66
2019-03-25T09:21:32.883Z,8.37
2019-03-25T09:23:33.072Z,8.27
2019-03-25T09:24:33.182Z,8.19
2019-03-25T09:26:32.860Z,7.91
2019-03-25T09:27:33.053Z,7.75
2019-03-25T09:28:32.851Z,7.43
2019-03-25T09:29:32.845Z,7.31
2019-03-25T09:30:32.835Z,7.35
2019-03-25T09:31:36.905Z,7.33
2019-03-25T09:33:32.822Z,7.10
2019-03-25T09:34:32.820Z,7.02
2019-03-25T09:35:32.806Z,7.00
2019-03-25T09:37:32.819Z,7.02
2019-03-25T09:38:32.999Z,7.07
2019-03-25T09:39:32.782Z,6.79
2019-03-25T09:40:32.783Z,6.74
2019-03-25T09:41:33.177Z,6.57
2019-03-25T09:42:32.771Z,6.57
2019-03-25T09:43:32.758Z,6.59
2019-03-25T09:46:32.742Z,6.56
2019-03-25T09:47:32.739Z,6.60
2019-03-25T09:49:32.726Z,6.57
2019-03-25T09:50:32.715Z,6.79
2019-03-25T09:51:32.718Z,7.11
2019-03-25T09:52:38.384Z,7.20
2019-03-25T09:54:32.697Z,7.20
2019-03-25T09:57:32.674Z,6.95
2019-03-25T09:58:36.518Z,7.13
2019-03-25T09:59:32.669Z,7.15
2019-03-25T10:00:32.660Z,7.25
2019-03-25T10:01:32.652Z,7.33
2019-03-25T10:02:32.649Z,7.69
2019-03-25T10:04:32.636Z,7.90
2019-03-25T10:06:32.827Z,8.08
2019-03-25T10:07:32.623Z,8.46
2019-03-25T10:08:32.618Z,8.66
2019-03-25T10:09:32.615Z,8.76
2019-03-25T10:11:32.805Z,8.61
2019-03-25T10:13:32.800Z,8.61
2019-03-25T10:14:32.588Z,8.69
2019-03-25T10:15:32.791Z,8.60
2019-03-25T10:19:32.571Z,8.71
2019-03-25T10:20:32.569Z,8.69
2019-03-25T10:22:32.561Z,9.11
2019-03-25T10:23:32.550Z,9.04
2019-03-25T10:24:32.550Z,8.87
2019-03-25T10:25:32.543Z,9.31
2019-03-25T10:26:32.543Z,9.58
2019-03-25T10:28:32.533Z,9.40
2019-03-25T10:29:32.526Z,9.51
2019-03-25T10:30:32.732Z,9.51
2019-03-25T10:31:32.522Z,9.43
2019-03-25T10:32:32.523Z,9.19
2019-03-25T10:33:32.518Z,9.14
2019-03-25T10:34:32.513Z,9.06
2019-03-25T10:35:32.711Z,9.23
2019-03-25T10:36:33.723Z,9.11
2019-03-25T10:38:32.493Z,9.18
2019-03-25T10:39:32.495Z,9.37
2019-03-25T10:40:32.490Z,9.47
2019-03-25T10:41:32.487Z,9.55
2019-03-25T10:42:32.485Z,9.54
2019-03-25T10:43:32.683Z,9.61
2019-03-25T10:44:32.679Z,9.80
2019-03-25T10:46:32.676Z,10.01
2019-03-25T10:49:32.465Z,9.74
2019-03-25T10:50:32.462Z,9.50
2019-03-25T10:51:32.462Z,9.65
2019-03-25T10:52:32.653Z,9.84
2019-03-25T10:53:32.460Z,10.01
2019-03-25T10:54:32.697Z,10.41
2019-03-25T10:55:32.453Z,10.69
2019-03-25T10:57:32.453Z,11.29
2019-03-25T10:59:33.667Z,11.80
2019-03-25T11:00:32.452Z,12.00
2019-03-25T11:02:32.450Z,12.54
2019-03-25T11:03:32.455Z,12.37
2019-03-25T11:04:32.451Z,12.25
2019-03-25T11:06:32.455Z,12.09
2019-03-25T11:07:32.574Z,11.69
2019-03-25T11:09:32.472Z,11.40
2019-03-25T11:10:32.452Z,11.02
2019-03-25T11:11:32.649Z,10.92
2019-03-25T11:12:32.447Z,10.57
2019-03-25T11:14:32.446Z,10.64
2019-03-25T11:16:33.850Z,10.61
2019-03-25T11:17:32.648Z,10.37
2019-03-25T11:18:32.440Z,10.28
2019-03-25T11:19:32.638Z,9.72
2019-03-25T11:20:32.435Z,8.97
2019-03-25T11:21:32.435Z,8.67
2019-03-25T11:22:32.435Z,8.53
2019-03-25T11:23:32.626Z,8.18
2019-03-25T11:24:32.629Z,8.06
2019-03-25T11:26:32.413Z,7.48
2019-03-25T11:28:32.405Z,7.11
2019-03-25T11:30:32.397Z,6.70
2019-03-25T11:31:32.396Z,6.70
2019-03-25T11:32:32.384Z,6.62
2019-03-25T11:33:32.385Z,6.66
2019-03-25T11:34:32.448Z,6.57
2019-03-25T11:36:32.364Z,6.52
2019-03-25T11:37:32.562Z,6.60
2019-03-25T11:40:32.552Z,6.67
2019-03-25T11:45:32.519Z,6.87
2019-03-25T11:47:32.307Z,7.54
2019-03-25T11:48:32.304Z,8.00
2019-03-25T11:49:32.308Z,8.61
2019-03-25T11:50:32.299Z,9.46
2019-03-25T11:52:32.304Z,10.28
2019-03-25T11:53:32.299Z,10.81
2019-03-25T11:54:32.307Z,11.40
2019-03-25T11:55:32.303Z,11.84
2019-03-25T11:56:32.312Z,12.37
2019-03-25T12:00:32.324Z,12.70
2019-03-25T12:01:32.534Z,12.93
2019-03-25T12:02:32.539Z,13.12
2019-03-25T12:03:32.341Z,13.39
2019-03-25T12:04:32.543Z,13.78
2019-03-25T12:05:33.777Z,14.12
2019-03-25T12:07:33.599Z,14.37
2019-03-25T12:08:32.371Z,14.53
2019-03-25T12:10:32.596Z,14.92
2019-03-25T12:11:32.396Z,14.79
2019-03-25T12:13:32.421Z,14.84
2019-03-25T12:14:32.424Z,14.94
2019-03-25T12:16:32.660Z,14.77
2019-03-25T12:19:33.885Z,13.62
2019-03-25T12:20:33.694Z,13.15
2019-03-25T12:21:32.483Z,13.11
2019-03-25T12:22:32.489Z,13.41
2019-03-25T12:23:32.494Z,13.35
2019-03-25T12:24:33.915Z,13.60
2019-03-25T12:25:32.500Z,13.77
2019-03-25T12:26:32.517Z,14.26
2019-03-25T12:27:32.617Z,14.77
2019-03-25T12:28:32.532Z,14.88
2019-03-25T12:29:32.542Z,14.72
2019-03-25T12:30:32.541Z,14.10
2019-03-25T12:32:34.385Z,13.47
2019-03-25T12:33:32.563Z,13.15
2019-03-25T12:34:32.703Z,13.15
2019-03-25T12:35:32.578Z,13.15
2019-03-25T12:37:32.792Z,12.36
2019-03-25T12:39:32.594Z,12.00
2019-03-25T12:40:33.006Z,11.66
2019-03-25T12:42:32.605Z,11.23
2019-03-25T12:43:33.007Z,11.00
2019-03-25T12:45:32.605Z,10.81
2019-03-25T12:46:32.601Z,10.59
2019-03-25T12:48:32.602Z,10.26
2019-03-25T12:50:32.608Z,10.09
2019-03-25T12:51:32.607Z,10.15
2019-03-25T12:52:32.604Z,9.86
2019-03-25T12:53:32.611Z,9.99
2019-03-25T12:56:05.819Z,9.76
2019-03-25T12:56:33.015Z,9.77
2019-03-25T12:57:32.604Z,9.64
2019-03-25T12:58:32.601Z,9.51
2019-03-25T12:59:41.314Z,9.32
2019-03-25T13:02:33.006Z,9.14
2019-03-25T13:04:32.597Z,8.88
2019-03-25T13:05:32.794Z,8.85
2019-03-25T13:06:32.787Z,8.76
2019-03-25T13:07:32.587Z,8.66
2019-03-25T13:08:33.381Z,8.69
2019-03-25T13:09:32.983Z,8.66
2019-03-25T13:10:32.574Z,8.58
2019-03-25T13:11:32.570Z,8.52
2019-03-25T13:13:32.566Z,8.60
2019-03-25T13:15:32.554Z,8.73
2019-03-25T13:16:32.760Z,8.84
2019-03-25T13:18:32.545Z,9.31
2019-03-25T13:19:32.542Z,9.54
2019-03-25T13:21:32.541Z,9.65
2019-03-25T13:22:32.541Z,9.69
2019-03-25T13:23:32.541Z,9.82
2019-03-25T13:24:32.528Z,9.73
2019-03-25T13:25:32.532Z,9.65
2019-03-25T13:26:32.531Z,9.74
2019-03-25T13:28:33.730Z,9.41
2019-03-25T13:30:32.714Z,9.40
2019-03-25T13:31:32.507Z,9.41
2019-03-25T13:32:32.511Z,9.36
2019-03-25T13:33:32.544Z,9.34
2019-03-25T13:34:32.540Z,9.43
2019-03-25T13:37:32.486Z,9.62
2019-03-25T13:38:33.695Z,9.74
2019-03-25T13:39:32.485Z,9.82
2019-03-25T13:41:32.879Z,10.72
2019-03-25T13:42:32.474Z,11.36
2019-03-25T13:44:32.672Z,12.18
2019-03-25T13:46:32.470Z,12.91
2019-03-25T13:47:32.683Z,13.60
2019-03-25T13:48:32.476Z,13.67
2019-03-25T13:50:32.483Z,14.48
2019-03-25T13:53:32.493Z,15.83
2019-03-25T13:54:32.499Z,16.72
2019-03-25T13:55:32.713Z,16.54
2019-03-25T13:56:32.518Z,16.26
2019-03-25T13:57:32.521Z,16.41
2019-03-25T13:58:32.530Z,16.29
2019-03-25T13:59:32.538Z,16.97
2019-03-25T14:00:32.948Z,16.54
2019-03-25T14:02:32.553Z,16.08
2019-03-25T14:04:05.778Z,16.01
2019-03-25T14:04:32.572Z,14.85
2019-03-25T14:05:32.585Z,14.08
2019-03-25T14:06:32.585Z,14.07
2019-03-25T14:07:32.997Z,13.93
2019-03-25T14:09:32.605Z,12.86
2019-03-25T14:10:32.605Z,12.42
2019-03-25T14:11:32.612Z,11.60
2019-03-25T14:12:32.816Z,10.81
2019-03-25T14:13:32.816Z,10.04
2019-03-25T14:14:32.814Z,9.95
2019-03-25T14:16:32.608Z,9.44
2019-03-25T14:17:32.610Z,9.28
2019-03-25T14:18:34.042Z,8.69
2019-03-25T14:20:34.022Z,9.28
2019-03-25T14:21:32.610Z,9.11
2019-03-25T14:23:32.609Z,10.72
2019-03-25T14:24:32.611Z,11.04
2019-03-25T14:25:33.018Z,10.87
2019-03-25T14:28:32.612Z,10.54
2019-03-25T14:29:32.611Z,10.92
2019-03-25T14:30:32.607Z,11.14
2019-03-25T14:32:32.609Z,13.16
2019-03-25T14:33:32.616Z,13.93
2019-03-25T14:34:33.028Z,14.72
2019-03-25T14:35:32.825Z,15.57
2019-03-25T14:36:32.629Z,16.53
2019-03-25T14:39:32.844Z,17.05
2019-03-25T14:41:32.860Z,16.75
2019-03-25T14:42:32.665Z,16.31
2019-03-25T14:43:32.667Z,15.90
2019-03-25T14:46:32.696Z,13.65
2019-03-25T14:48:32.697Z,13.03
2019-03-25T14:49:32.708Z,13.09
2019-03-25T14:50:32.708Z,12.78
2019-03-25T14:54:32.721Z,12.80
2019-03-25T14:56:06.336Z,12.94
2019-03-25T14:57:32.729Z,12.98
2019-03-25T15:00:32.942Z,12.72
2019-03-25T15:01:32.742Z,12.22
2019-03-25T15:02:32.742Z,11.37
2019-03-25T15:03:32.947Z,11.36
2019-03-25T15:04:33.345Z,11.12
2019-03-25T15:05:32.744Z,10.56
2019-03-25T15:06:34.168Z,10.81
2019-03-25T15:08:32.942Z,11.15
2019-03-25T15:09:32.742Z,10.92
2019-03-25T15:11:32.736Z,11.00
2019-03-25T15:12:32.738Z,11.00
2019-03-25T15:14:33.550Z,10.46
2019-03-25T15:15:32.733Z,10.33
2019-03-25T15:17:32.733Z,10.28
2019-03-25T15:18:32.931Z,9.82
2019-03-25T15:21:32.718Z,9.32
2019-03-25T15:22:32.721Z,9.13
2019-03-25T15:23:32.718Z,9.00
2019-03-25T15:24:32.720Z,8.97
2019-03-25T15:25:32.707Z,8.84
2019-03-25T15:26:32.703Z,9.00
2019-03-25T15:27:32.909Z,8.82
2019-03-25T15:29:32.694Z,8.70
2019-03-25T15:30:36.240Z,8.63
2019-03-25T15:31:32.690Z,8.36
2019-03-25T15:32:32.680Z,8.26
2019-03-25T15:33:32.883Z,8.28
2019-03-25T15:34:32.880Z,8.18
2019-03-25T15:36:32.874Z,7.87
2019-03-25T15:37:32.660Z,7.94
2019-03-25T15:39:32.650Z,7.95
2019-03-25T15:40:32.754Z,8.12
2019-03-25T15:41:32.844Z,8.23
2019-03-25T15:42:32.847Z,8.12
2019-03-25T15:45:32.824Z,7.91
2019-03-25T15:46:32.826Z,7.97
2019-03-25T15:47:32.850Z,8.16
2019-03-25T15:48:32.810Z,7.87
2019-03-25T15:50:32.605Z,8.12
2019-03-25T15:51:32.598Z,8.38
2019-03-25T15:53:32.802Z,10.02
2019-03-25T15:54:32.794Z,10.93
2019-03-25T15:55:32.787Z,11.90
2019-03-25T15:56:32.585Z,12.43
2019-03-25T15:57:32.579Z,12.72
2019-03-25T15:58:32.784Z,13.00
2019-03-25T15:59:32.783Z,13.35
2019-03-25T16:00:32.783Z,13.57
2019-03-25T16:02:32.776Z,14.62
2019-03-25T16:03:32.579Z,14.07
2019-03-25T16:06:32.781Z,13.89
2019-03-25T16:07:33.787Z,13.74
2019-03-25T16:08:32.582Z,13.46
2019-03-25T16:09:32.777Z,13.23
2019-03-25T16:12:32.776Z,12.75
2019-03-25T16:14:32.573Z,11.17
2019-03-25T16:15:32.578Z,10.76
2019-03-25T16:18:32.569Z,10.15
2019-03-25T16:20:33.791Z,9.86
2019-03-25T16:21:32.762Z,9.58
2019-03-25T16:22:32.560Z,9.65
2019-03-25T16:24:05.764Z,9.31
2019-03-25T16:24:32.759Z,9.00
2019-03-25T16:26:32.547Z,8.64
2019-03-25T16:27:32.547Z,8.64
2019-03-25T16:28:32.540Z,8.58
2019-03-25T16:29:32.538Z,8.36
2019-03-25T16:30:32.530Z,8.52
2019-03-25T16:31:32.524Z,8.36
2019-03-25T16:32:32.516Z,8.34
2019-03-25T16:33:32.716Z,8.36
2019-03-25T16:34:32.515Z,8.36
2019-03-25T16:35:32.503Z,8.48
2019-03-25T16:36:32.498Z,8.51
2019-03-25T16:37:32.695Z,8.53
2019-03-25T16:38:32.696Z,8.51
2019-03-25T16:39:32.687Z,8.63
2019-03-25T16:41:32.474Z,8.71
2019-03-25T16:42:32.680Z,8.66
2019-03-25T16:43:32.474Z,8.64
2019-03-25T16:44:32.666Z,8.64
2019-03-25T16:45:32.465Z,8.64
2019-03-25T16:46:32.869Z,8.61
2019-03-25T16:47:32.649Z,8.64
2019-03-25T16:49:32.644Z,8.56
2019-03-25T16:50:32.436Z,8.45
2019-03-25T16:51:32.639Z,8.30
2019-03-25T16:53:32.416Z,8.42
2019-03-25T16:54:32.422Z,8.34
2019-03-25T16:55:32.823Z,8.16
2019-03-25T16:57:32.398Z,8.10
2019-03-25T17:01:32.383Z,8.16
2019-03-25T17:03:32.370Z,8.09
2019-03-25T17:05:32.360Z,8.08
2019-03-25T17:06:32.559Z,8.00
2019-03-25T17:07:32.352Z,8.15
2019-03-25T17:08:32.752Z,8.10
2019-03-25T17:09:32.543Z,7.98
2019-03-25T17:10:32.535Z,8.03
2019-03-25T17:11:32.533Z,8.10
2019-03-25T17:13:33.532Z,7.95
2019-03-25T17:14:32.509Z,7.93
2019-03-25T17:15:32.304Z,7.87
2019-03-25T17:16:32.705Z,7.90
2019-03-25T17:17:32.320Z,7.80
2019-03-25T17:20:32.484Z,7.69
2019-03-25T17:22:32.269Z,7.69
2019-03-25T17:23:32.256Z,7.73
2019-03-25T17:24:32.458Z,7.72
2019-03-25T17:25:32.458Z,7.70
2019-03-25T17:27:32.235Z,7.69
2019-03-25T17:28:32.229Z,7.66
2019-03-25T17:30:05.638Z,7.69
2019-03-25T17:30:32.216Z,7.48
2019-03-25T17:32:32.412Z,7.53
2019-03-25T17:33:32.202Z,7.54